createdAt,value
2018-04-07T00:01:24.682Z,26.30
2018-04-07T00:03:52.975Z,26.30
2018-04-07T00:06:21.293Z,26.40
2018-04-07T00:08:49.595Z,26.60
2018-04-07T00:11:17.951Z,26.50
2018-04-07T00:13:46.251Z,26.50
2018-04-07T00:16:14.582Z,26.70
2018-04-07T00:18:42.882Z,26.60
2018-04-07T00:21:11.216Z,26.70
2018-04-07T00:23:39.512Z,26.80
2018-04-07T00:26:07.832Z,26.60
2018-04-07T00:28:36.150Z,26.60
2018-04-07T00:31:04.430Z,26.70
2018-04-07T00:33:32.723Z,26.40
2018-04-07T00:36:01.031Z,26.50
2018-04-07T00:38:29.315Z,26.30
2018-04-07T00:40:57.600Z,26.50
2018-04-07T00:43:26.302Z,27.00
2018-04-07T00:45:54.970Z,27.40
2018-04-07T00:48:23.645Z,27.70
2018-04-07T00:50:51.955Z,27.70
2018-04-07T00:53:20.245Z,27.90
2018-04-07T00:55:48.527Z,27.90
2018-04-07T00:58:16.952Z,28.00
2018-04-07T01:00:45.238Z,28.00
2018-04-07T01:03:13.523Z,28.10
2018-04-07T01:05:42.254Z,28.00
2018-04-07T01:08:10.551Z,28.00
2018-04-07T01:10:39.079Z,28.00
2018-04-07T01:13:07.385Z,28.20
2018-04-07T01:15:35.661Z,28.20
2018-04-07T01:18:03.942Z,28.50
2018-04-07T01:20:32.273Z,28.60
2018-04-07T01:23:00.943Z,28.60
2018-04-07T01:25:29.255Z,28.60
2018-04-07T01:27:57.567Z,28.70
2018-04-07T01:30:25.846Z,28.70
2018-04-07T01:32:54.151Z,28.50
2018-04-07T01:35:22.457Z,28.60
2018-04-07T01:37:51.139Z,28.70
2018-04-07T01:40:19.516Z,28.70
2018-04-07T01:42:47.855Z,28.60
2018-04-07T01:45:16.147Z,28.60
2018-04-07T01:47:44.518Z,28.80
2018-04-07T01:50:12.818Z,28.80
2018-04-07T01:52:41.580Z,28.70
2018-04-07T01:55:10.286Z,28.70
2018-04-07T01:57:38.989Z,28.70
2018-04-07T02:00:07.339Z,28.70
2018-04-07T02:02:35.621Z,28.50
2018-04-07T02:05:04.303Z,28.10
2018-04-07T02:07:33.390Z,28.10
2018-04-07T02:10:03.226Z,28.40
2018-04-07T02:12:32.025Z,28.40
2018-04-07T02:15:00.846Z,28.60
2018-04-07T02:17:29.197Z,28.60
2018-04-07T02:19:57.482Z,28.60
2018-04-07T02:22:25.778Z,28.70
2018-04-07T02:24:54.056Z,28.70
2018-04-07T02:27:22.450Z,28.70
2018-04-07T02:29:50.768Z,28.70
2018-04-07T02:32:19.072Z,28.70
2018-04-07T02:34:47.617Z,28.80
2018-04-07T02:37:15.919Z,28.80
2018-04-07T02:39:44.200Z,28.50
2018-04-07T02:42:12.617Z,28.40
2018-04-07T02:44:40.899Z,28.40
2018-04-07T02:47:09.185Z,28.60
2018-04-07T02:49:37.521Z,28.60
2018-04-07T02:52:05.800Z,28.80
2018-04-07T02:54:34.075Z,28.80
2018-04-07T02:57:02.481Z,29.30
2018-04-07T02:59:30.762Z,29.30
2018-04-07T03:01:59.124Z,29.00
2018-04-07T03:04:27.480Z,29.20
2018-04-07T03:06:55.780Z,29.10
2018-04-07T03:09:24.164Z,29.30
2018-04-07T03:11:52.454Z,29.50
2018-04-07T03:14:20.737Z,29.60
2018-04-07T03:16:49.324Z,29.70
2018-04-07T03:19:17.634Z,29.60
2018-04-07T03:21:45.916Z,29.80
2018-04-07T03:24:14.203Z,29.90
2018-04-07T03:26:42.508Z,29.90
2018-04-07T03:29:10.799Z,29.90
2018-04-07T03:31:39.100Z,29.90
2018-04-07T03:34:07.785Z,30.30
2018-04-07T03:36:36.511Z,30.10
2018-04-07T03:39:04.798Z,30.30
2018-04-07T03:41:33.093Z,30.30
2018-04-07T03:44:01.403Z,30.30
2018-04-07T03:46:30.374Z,30.70
2018-04-07T03:48:58.659Z,30.70
2018-04-07T03:51:27.256Z,30.80
2018-04-07T03:53:55.926Z,30.10
2018-04-07T03:56:24.218Z,30.10
2018-04-07T03:58:52.930Z,29.70
2018-04-07T04:01:21.236Z,29.70
2018-04-07T04:03:49.517Z,29.80
2018-04-07T04:06:17.806Z,29.80
2018-04-07T04:08:46.107Z,29.90
2018-04-07T04:11:14.784Z,30.40
2018-04-07T04:13:43.094Z,30.40
2018-04-07T04:16:11.364Z,30.40
2018-04-07T04:18:39.651Z,30.40
2018-04-07T04:21:08.282Z,30.60
2018-04-07T04:23:36.573Z,30.40
2018-04-07T04:26:05.023Z,29.90
2018-04-07T04:28:33.623Z,30.40
2018-04-07T04:31:01.926Z,30.40
2018-04-07T04:33:30.652Z,30.70
2018-04-07T04:35:58.913Z,30.70
2018-04-07T04:38:27.234Z,30.40
2018-04-07T04:40:55.832Z,30.40
2018-04-07T04:43:24.132Z,30.40
2018-04-07T04:45:52.847Z,30.60
2018-04-07T04:48:21.126Z,30.60
2018-04-07T04:50:49.421Z,30.70
2018-04-07T04:53:17.726Z,30.70
2018-04-07T04:55:46.431Z,30.80
2018-04-07T04:58:14.712Z,30.80
2018-04-07T05:00:43.024Z,30.70
2018-04-07T05:03:11.415Z,30.60
2018-04-07T05:05:39.706Z,30.60
2018-04-07T05:08:08.035Z,30.30
2018-04-07T05:10:36.572Z,29.90
2018-04-07T05:13:04.859Z,30.30
2018-04-07T05:15:33.564Z,29.80
2018-04-07T05:18:02.249Z,29.80
2018-04-07T05:20:30.680Z,29.80
2018-04-07T05:22:59.010Z,29.80
2018-04-07T05:25:27.288Z,29.80
2018-04-07T05:27:55.600Z,29.60
2018-04-07T05:30:23.900Z,29.60
2018-04-07T05:32:52.245Z,29.40
2018-04-07T05:35:20.543Z,29.30
2018-04-07T05:37:49.300Z,29.10
2018-04-07T05:40:17.632Z,29.10
2018-04-07T05:42:46.341Z,28.80
2018-04-07T05:45:15.028Z,28.80
2018-04-07T05:47:43.324Z,28.80
2018-04-07T05:50:11.629Z,28.70
2018-04-07T05:52:39.916Z,29.00
2018-04-07T05:55:08.310Z,29.60
2018-04-07T05:57:36.602Z,29.40
2018-04-07T06:00:04.957Z,28.80
2018-04-07T06:02:33.292Z,29.00
2018-04-07T06:05:01.578Z,28.20
2018-04-07T06:07:30.212Z,28.30
2018-04-07T06:09:59.398Z,27.20
2018-04-07T06:12:27.707Z,27.20
2018-04-07T06:14:56.300Z,26.90
2018-04-07T06:17:25.214Z,27.20
2018-04-07T06:19:54.438Z,26.20
2018-04-07T06:22:22.800Z,26.20
2018-04-07T06:24:51.509Z,25.60
2018-04-07T06:27:19.845Z,25.40
2018-04-07T06:29:48.169Z,25.40
2018-04-07T06:32:16.558Z,25.00
2018-04-07T06:34:44.904Z,24.30
2018-04-07T06:37:13.226Z,24.40
2018-04-07T06:39:41.512Z,24.10
2018-04-07T06:42:09.855Z,23.60
2018-04-07T06:44:38.210Z,23.50
2018-04-07T06:47:06.502Z,23.60
2018-04-07T06:49:34.844Z,25.70
2018-04-07T06:52:03.123Z,25.40
2018-04-07T06:54:31.459Z,23.60
2018-04-07T06:57:00.171Z,23.20
2018-04-07T06:59:28.765Z,23.30
2018-04-07T07:01:57.393Z,22.70
2018-04-07T07:04:26.786Z,22.20
2018-04-07T07:06:55.731Z,20.90
2018-04-07T07:09:24.037Z,20.50
2018-04-07T07:11:52.649Z,22.20
2018-04-07T07:14:21.345Z,19.30
2018-04-07T07:16:50.048Z,18.50
2018-04-07T07:19:18.749Z,18.10
2018-04-07T07:21:47.127Z,18.10
2018-04-07T07:24:15.464Z,19.00
2018-04-07T07:26:44.604Z,23.90
2018-04-07T07:29:12.904Z,23.90
2018-04-07T07:31:41.228Z,24.70
2018-04-07T07:34:09.583Z,26.70
2018-04-07T07:36:37.902Z,27.60
2018-04-07T07:39:06.204Z,25.90
2018-04-07T07:41:34.584Z,24.50
2018-04-07T07:44:02.880Z,23.90
2018-04-07T07:46:31.199Z,24.80
2018-04-07T07:48:59.493Z,24.30
2018-04-07T07:51:27.806Z,25.30
2018-04-07T07:53:56.183Z,24.90
2018-04-07T07:56:24.517Z,24.30
2018-04-07T07:58:52.796Z,23.90
2018-04-07T08:01:21.126Z,25.60
2018-04-07T08:03:49.538Z,23.40
2018-04-07T08:06:18.237Z,24.10
2018-04-07T08:08:46.780Z,24.20
2018-04-07T08:11:15.139Z,23.60
2018-04-07T08:13:43.465Z,22.50
2018-04-07T08:16:12.150Z,24.90
2018-04-07T08:18:40.485Z,23.00
2018-04-07T08:21:08.762Z,26.50
2018-04-07T08:23:37.064Z,22.80
2018-04-07T08:26:05.766Z,22.90
2018-04-07T08:28:35.257Z,22.70
2018-04-07T08:31:04.213Z,21.80
2018-04-07T08:33:32.534Z,21.80
2018-04-07T08:36:01.219Z,21.70
2018-04-07T08:38:30.194Z,27.90
2018-04-07T08:40:58.880Z,20.40
2018-04-07T08:43:28.256Z,20.40
2018-04-07T08:45:56.859Z,19.70
2018-04-07T08:48:25.567Z,19.60
2018-04-07T08:50:54.288Z,21.60
2018-04-07T08:53:22.616Z,21.70
2018-04-07T08:55:51.359Z,21.00
2018-04-07T08:58:19.665Z,20.90
2018-04-07T09:00:47.975Z,20.60
2018-04-07T09:03:16.668Z,20.80
2018-04-07T09:05:45.329Z,20.80
2018-04-07T09:08:14.003Z,21.00
2018-04-07T09:10:42.288Z,20.80
2018-04-07T09:13:11.235Z,22.70
2018-04-07T09:15:39.639Z,22.70
2018-04-07T09:18:07.961Z,20.20
2018-04-07T09:20:36.257Z,22.60
2018-04-07T09:23:04.581Z,18.40
2018-04-07T09:25:32.873Z,18.20
2018-04-07T09:28:01.561Z,18.70
2018-04-07T09:30:29.923Z,18.70
2018-04-07T09:32:58.286Z,19.40
2018-04-07T09:35:26.624Z,19.30
2018-04-07T09:37:54.921Z,18.70
2018-04-07T09:40:23.240Z,18.20
2018-04-07T09:42:51.677Z,18.50
2018-04-07T09:45:19.963Z,17.60
2018-04-07T09:47:48.268Z,18.00
2018-04-07T09:50:16.846Z,20.00
2018-04-07T09:52:45.136Z,16.70
2018-04-07T09:55:13.428Z,16.90
2018-04-07T09:57:42.394Z,18.80
2018-04-07T10:00:10.693Z,18.80
2018-04-07T10:02:39.382Z,16.30
2018-04-07T10:05:08.079Z,16.30
2018-04-07T10:07:36.625Z,16.00
2018-04-07T10:10:05.416Z,16.30
2018-04-07T10:12:34.407Z,19.00
2018-04-07T10:15:02.719Z,19.00
2018-04-07T10:17:30.997Z,16.20
2018-04-07T10:19:59.539Z,18.40
2018-04-07T10:22:27.871Z,16.60
2018-04-07T10:24:56.180Z,16.10
2018-04-07T10:27:24.482Z,16.10
2018-04-07T10:29:53.648Z,15.40
2018-04-07T10:32:21.940Z,16.20
2018-04-07T10:34:50.228Z,17.70
2018-04-07T10:37:18.582Z,16.30
2018-04-07T10:39:46.885Z,16.10
2018-04-07T10:42:15.218Z,15.90
2018-04-07T10:44:43.547Z,17.30
2018-04-07T10:47:11.871Z,15.30
2018-04-07T10:49:40.150Z,15.90
2018-04-07T10:52:08.473Z,16.70
2018-04-07T10:54:37.171Z,18.10
2018-04-07T10:57:05.847Z,16.80
2018-04-07T10:59:34.576Z,16.10
2018-04-07T11:02:02.872Z,16.10
2018-04-07T11:04:31.195Z,16.60
2018-04-07T11:06:59.942Z,17.60
2018-04-07T11:09:28.323Z,17.60
2018-04-07T11:11:56.640Z,18.50
2018-04-07T11:14:25.323Z,14.20
2018-04-07T11:16:54.031Z,14.60
2018-04-07T11:19:22.334Z,14.60
2018-04-07T11:21:50.614Z,14.80
2018-04-07T11:24:19.218Z,15.30
2018-04-07T11:26:47.690Z,15.00
2018-04-07T11:29:16.007Z,15.80
2018-04-07T11:31:44.699Z,16.40
2018-04-07T11:34:13.435Z,15.90
2018-04-07T11:36:41.712Z,15.90
2018-04-07T11:39:09.999Z,17.20
2018-04-07T11:41:38.311Z,15.50
2018-04-07T11:44:06.984Z,16.50
2018-04-07T11:46:35.691Z,16.50
2018-04-07T11:49:04.412Z,16.50
2018-04-07T11:51:32.701Z,16.30
2018-04-07T11:54:01.181Z,16.70
2018-04-07T11:56:29.478Z,16.30
2018-04-07T11:58:57.987Z,15.80
2018-04-07T12:01:26.420Z,16.40
2018-04-07T12:03:54.693Z,16.30
2018-04-07T12:06:23.297Z,17.30
2018-04-07T12:08:51.587Z,16.40
2018-04-07T12:11:20.151Z,16.80
2018-04-07T12:13:48.455Z,17.30
2018-04-07T12:16:17.168Z,16.80
2018-04-07T12:18:45.453Z,16.90
2018-04-07T12:21:13.730Z,16.50
2018-04-07T12:23:42.049Z,16.30
2018-04-07T12:26:10.335Z,16.80
2018-04-07T12:28:38.807Z,16.40
2018-04-07T12:31:07.124Z,16.40
2018-04-07T12:33:35.403Z,16.40
2018-04-07T12:36:03.703Z,16.10
2018-04-07T12:38:31.996Z,17.60
2018-04-07T12:41:00.799Z,15.40
2018-04-07T12:43:29.379Z,15.00
2018-04-07T12:45:57.664Z,15.30
2018-04-07T12:48:25.955Z,15.50
2018-04-07T12:50:54.694Z,17.30
2018-04-07T12:53:22.979Z,17.30
2018-04-07T12:55:51.262Z,15.70
2018-04-07T12:58:19.868Z,16.40
2018-04-07T13:00:48.580Z,16.50
2018-04-07T13:03:16.882Z,16.50
2018-04-07T13:05:45.244Z,16.70
2018-04-07T13:08:13.984Z,16.30
2018-04-07T13:10:42.274Z,16.30
2018-04-07T13:13:10.598Z,16.20
2018-04-07T13:15:39.110Z,16.80
2018-04-07T13:18:07.415Z,16.50
2018-04-07T13:20:36.118Z,16.40
2018-04-07T13:23:04.429Z,16.40
2018-04-07T13:25:33.045Z,16.80
2018-04-07T13:28:01.328Z,16.60
2018-04-07T13:30:29.606Z,16.90
2018-04-07T13:32:58.374Z,16.40
2018-04-07T13:35:26.749Z,16.40
2018-04-07T13:37:55.228Z,16.50
2018-04-07T13:40:23.541Z,17.70
2018-04-07T13:42:52.237Z,17.20
2018-04-07T13:45:20.912Z,16.30
2018-04-07T13:47:49.279Z,16.30
2018-04-07T13:50:17.586Z,16.50
2018-04-07T13:52:45.887Z,15.50
2018-04-07T13:55:14.229Z,16.80
2018-04-07T13:57:42.830Z,15.90
2018-04-07T14:00:11.113Z,16.90
2018-04-07T14:02:39.844Z,15.70
2018-04-07T14:05:08.172Z,17.60
2018-04-07T14:07:36.494Z,15.00
2018-04-07T14:10:04.861Z,14.30
2018-04-07T14:12:33.657Z,13.90
2018-04-07T14:15:01.951Z,13.90
2018-04-07T14:17:30.313Z,14.30
2018-04-07T14:19:58.617Z,14.70
2018-04-07T14:22:26.895Z,15.20
2018-04-07T14:24:55.766Z,16.80
2018-04-07T14:27:24.068Z,16.80
2018-04-07T14:29:53.032Z,14.40
2018-04-07T14:32:21.784Z,15.00
2018-04-07T14:34:50.079Z,15.00
2018-04-07T14:37:18.621Z,15.10
2018-04-07T14:39:46.935Z,15.30
2018-04-07T14:42:15.232Z,15.60
2018-04-07T14:44:43.822Z,15.40
2018-04-07T14:47:12.558Z,16.60
2018-04-07T14:49:40.837Z,16.60
2018-04-07T14:52:09.126Z,15.70
2018-04-07T14:54:37.517Z,17.30
2018-04-07T14:57:05.811Z,16.20
2018-04-07T14:59:34.128Z,15.30
2018-04-07T15:02:02.464Z,15.70
2018-04-07T15:04:30.759Z,16.30
2018-04-07T15:06:59.064Z,17.10
2018-04-07T15:09:27.483Z,16.50
2018-04-07T15:11:55.800Z,16.80
2018-04-07T15:14:24.788Z,18.90
2018-04-07T15:16:53.800Z,18.70
2018-04-07T15:19:22.094Z,18.70
2018-04-07T15:21:50.453Z,17.30
2018-04-07T15:24:18.860Z,17.40
2018-04-07T15:26:47.196Z,18.70
2018-04-07T15:29:15.597Z,18.20
2018-04-07T15:31:43.944Z,17.80
2018-04-07T15:34:12.367Z,17.60
2018-04-07T15:36:40.707Z,18.20
2018-04-07T15:39:09.027Z,18.40
2018-04-07T15:41:37.308Z,19.00
2018-04-07T15:44:05.628Z,19.30
2018-04-07T15:46:34.866Z,18.90
2018-04-07T15:49:03.230Z,19.10
2018-04-07T15:51:31.658Z,19.40
2018-04-07T15:54:00.406Z,19.90
2018-04-07T15:56:29.597Z,19.90
2018-04-07T15:58:58.447Z,20.20
2018-04-07T16:01:26.805Z,20.20
2018-04-07T16:03:55.138Z,20.10
2018-04-07T16:06:23.594Z,20.50
2018-04-07T16:08:51.931Z,20.70
2018-04-07T16:11:20.659Z,20.60
2018-04-07T16:13:48.983Z,20.80
2018-04-07T16:16:17.907Z,20.70
2018-04-07T16:18:46.246Z,21.00
2018-04-07T16:21:14.587Z,21.50
2018-04-07T16:23:43.029Z,22.00
2018-04-07T16:26:11.398Z,21.00
2018-04-07T16:28:39.696Z,21.10
2018-04-07T16:31:08.068Z,21.40
2018-04-07T16:33:36.555Z,21.30
2018-04-07T16:36:04.960Z,21.80
2018-04-07T16:38:33.339Z,22.20
2018-04-07T16:41:01.727Z,22.20
2018-04-07T16:43:30.061Z,22.40
2018-04-07T16:45:58.433Z,22.30
2018-04-07T16:48:26.846Z,22.50
2018-04-07T16:50:55.241Z,22.40
2018-04-07T16:53:23.588Z,23.80
2018-04-07T16:55:52.377Z,23.10
2018-04-07T16:58:21.028Z,23.10
2018-04-07T17:00:49.494Z,22.90
2018-04-07T17:03:17.831Z,23.00
2018-04-07T17:05:46.201Z,23.50
2018-04-07T17:08:14.545Z,22.80
2018-04-07T17:10:42.956Z,23.50
2018-04-07T17:13:11.556Z,22.90
2018-04-07T17:15:39.910Z,23.10
2018-04-07T17:18:08.499Z,23.30
2018-04-07T17:20:37.522Z,23.60
2018-04-07T17:23:05.843Z,23.70
2018-04-07T17:25:34.137Z,23.90
2018-04-07T17:28:02.470Z,24.10
2018-04-07T17:30:31.046Z,24.30
2018-04-07T17:32:59.355Z,24.40
2018-04-07T17:35:27.649Z,24.30
2018-04-07T17:37:56.206Z,24.50
2018-04-07T17:40:24.615Z,24.60
2018-04-07T17:42:53.006Z,24.80
2018-04-07T17:45:21.458Z,24.90
2018-04-07T17:47:50.068Z,24.80
2018-04-07T17:50:18.359Z,24.60
2018-04-07T17:52:47.112Z,25.00
2018-04-07T17:55:15.423Z,25.00
2018-04-07T17:57:44.041Z,24.80
2018-04-07T18:00:12.375Z,24.80
2018-04-07T18:02:40.807Z,25.00
2018-04-07T18:05:09.697Z,25.40
2018-04-07T18:07:38.280Z,25.40
2018-04-07T18:10:06.725Z,25.20
2018-04-07T18:12:35.431Z,25.50
2018-04-07T18:15:03.800Z,25.50
2018-04-07T18:17:32.147Z,25.60
2018-04-07T18:20:00.475Z,25.60
2018-04-07T18:22:28.805Z,25.70
2018-04-07T18:24:57.529Z,26.00
2018-04-07T18:27:26.105Z,26.00
2018-04-07T18:29:54.913Z,26.20
2018-04-07T18:32:23.347Z,26.10
2018-04-07T18:34:51.753Z,26.20
2018-04-07T18:37:20.046Z,26.30
2018-04-07T18:39:48.458Z,26.40
2018-04-07T18:42:17.054Z,26.40
2018-04-07T18:44:45.390Z,26.40
2018-04-07T18:47:13.758Z,26.40
2018-04-07T18:49:42.083Z,26.70
2018-04-07T18:52:10.440Z,26.80
2018-04-07T18:54:38.859Z,26.70
2018-04-07T18:57:07.172Z,26.90
2018-04-07T18:59:35.536Z,26.90
2018-04-07T19:02:03.854Z,27.00
2018-04-07T19:04:32.156Z,27.20
2018-04-07T19:07:00.969Z,27.30
2018-04-07T19:09:29.704Z,27.60
2018-04-07T19:11:58.020Z,27.60
2018-04-07T19:14:26.718Z,27.80
2018-04-07T19:16:55.512Z,28.20
2018-04-07T19:19:24.255Z,28.20
2018-04-07T19:21:52.560Z,28.20
2018-04-07T19:24:21.259Z,28.50
2018-04-07T19:26:49.574Z,28.50
2018-04-07T19:29:17.882Z,28.60
2018-04-07T19:31:46.197Z,28.60
2018-04-07T19:34:14.491Z,28.60
2018-04-07T19:36:42.798Z,28.70
2018-04-07T19:39:11.122Z,28.60
2018-04-07T19:41:39.816Z,28.80
2018-04-07T19:44:08.120Z,28.80
2018-04-07T19:46:36.457Z,28.60
2018-04-07T19:49:05.141Z,28.80
2018-04-07T19:51:33.838Z,29.10
2018-04-07T19:54:02.181Z,29.10
2018-04-07T19:56:30.493Z,29.00
2018-04-07T19:58:58.817Z,29.10
2018-04-07T20:01:27.118Z,29.30
2018-04-07T20:03:55.412Z,29.40
2018-04-07T20:06:24.079Z,29.60
2018-04-07T20:08:52.384Z,29.80
2018-04-07T20:11:20.675Z,30.60
2018-04-07T20:13:49.023Z,30.70
2018-04-07T20:16:17.704Z,31.00
2018-04-07T20:18:45.997Z,31.00
2018-04-07T20:21:14.369Z,31.00
2018-04-07T20:23:43.451Z,32.00
2018-04-07T20:26:12.434Z,32.00
2018-04-07T20:28:41.195Z,32.20
2018-04-07T20:31:09.544Z,32.20
2018-04-07T20:33:37.882Z,32.80
2018-04-07T20:36:06.618Z,33.10
2018-04-07T20:38:35.247Z,33.10
2018-04-07T20:41:03.607Z,33.50
2018-04-07T20:43:32.226Z,33.70
2018-04-07T20:46:00.600Z,34.00
2018-04-07T20:48:28.905Z,34.20
2018-04-07T20:50:57.264Z,34.40
2018-04-07T20:53:25.951Z,34.70
2018-04-07T20:55:54.663Z,35.10
2018-04-07T20:58:23.034Z,35.10
2018-04-07T21:00:51.338Z,35.30
2018-04-07T21:03:19.666Z,35.60
2018-04-07T21:05:48.369Z,35.90
2018-04-07T21:08:16.656Z,35.90
2018-04-07T21:10:44.983Z,36.00
2018-04-07T21:13:13.583Z,36.00
2018-04-07T21:15:41.926Z,36.30
2018-04-07T21:18:10.264Z,36.50
2018-04-07T21:20:38.550Z,36.60
2018-04-07T21:23:06.889Z,36.80
2018-04-07T21:25:35.197Z,36.80
2018-04-07T21:28:04.003Z,36.80
2018-04-07T21:30:32.555Z,36.90
2018-04-07T21:33:01.672Z,37.50
2018-04-07T21:35:30.010Z,37.50
2018-04-07T21:37:58.321Z,37.80
2018-04-07T21:40:26.859Z,37.90
2018-04-07T21:42:55.204Z,38.10
2018-04-07T21:45:23.516Z,38.10
2018-04-07T21:47:51.831Z,37.90
2018-04-07T21:50:20.796Z,38.10
2018-04-07T21:52:49.310Z,37.90
2018-04-07T21:55:17.660Z,37.90
2018-04-07T21:57:46.015Z,38.10
2018-04-07T22:00:14.354Z,38.10
2018-04-07T22:02:43.260Z,38.20
2018-04-07T22:05:11.958Z,38.10
2018-04-07T22:07:40.330Z,38.20
2018-04-07T22:10:08.620Z,38.70
2018-04-07T22:12:36.917Z,38.80
2018-04-07T22:15:05.542Z,39.10
2018-04-07T22:17:34.169Z,39.30
2018-04-07T22:20:03.241Z,39.30
2018-04-07T22:22:31.608Z,39.30
2018-04-07T22:25:00.231Z,39.70
2018-04-07T22:27:28.571Z,40.30
2018-04-07T22:29:56.886Z,40.60
2018-04-07T22:32:25.598Z,40.60
2018-04-07T22:34:55.098Z,40.90
2018-04-07T22:37:23.798Z,41.90
2018-04-07T22:39:52.088Z,41.90
2018-04-07T22:42:20.428Z,41.90
2018-04-07T22:44:48.720Z,41.80
2018-04-07T22:47:17.017Z,42.40
2018-04-07T22:49:45.355Z,43.00
2018-04-07T22:52:13.641Z,43.10
2018-04-07T22:54:42.323Z,43.30
2018-04-07T22:57:10.669Z,43.30
2018-04-07T22:59:38.984Z,43.70
2018-04-07T23:02:07.313Z,44.00
2018-04-07T23:04:35.647Z,43.70
2018-04-07T23:07:03.932Z,43.60
2018-04-07T23:09:32.217Z,43.10
2018-04-07T23:12:00.545Z,43.00
2018-04-07T23:14:29.158Z,43.60
2018-04-07T23:16:57.489Z,43.60
2018-04-07T23:19:25.800Z,44.30
2018-04-07T23:21:54.121Z,44.60
2018-04-07T23:24:22.402Z,45.20
2018-04-07T23:26:50.735Z,45.00
2018-04-07T23:29:19.422Z,45.30
2018-04-07T23:31:48.101Z,45.20
2018-04-07T23:34:16.416Z,45.20
2018-04-07T23:36:44.733Z,45.50
2018-04-07T23:39:13.019Z,45.80
2018-04-07T23:41:41.344Z,46.20
2018-04-07T23:44:09.629Z,46.10
2018-04-07T23:46:37.927Z,45.20
2018-04-07T23:49:06.267Z,45.00
2018-04-07T23:51:34.560Z,44.30
2018-04-07T23:54:02.840Z,44.90
2018-04-07T23:56:31.176Z,44.90
2018-04-07T23:58:59.520Z,45.30
